sensor_id;sensor_type;location;lat;lon;timestamp;temperature;humidity
7129;DHT22;3606;52.930;8.644;2022-12-10T00:01:49;0.30;99.90
7129;DHT22;3606;52.930;8.644;2022-12-10T00:04:15;0.20;99.90
7129;DHT22;3606;52.930;8.644;2022-12-10T00:06:42;0.20;99.90
7129;DHT22;3606;52.930;8.644;2022-12-10T00:09:11;0.20;99.90
7129;DHT22;3606;52.930;8.644;2022-12-10T00:11:38;0.20;99.90
7129;DHT22;3606;52.930;8.644;2022-12-10T00:14:03;0.20;99.90
7129;DHT22;3606;52.930;8.644;2022-12-10T00:16:29;0.20;99.90
7129;DHT22;3606;52.930;8.644;2022-12-10T00:18:56;0.30;99.90
7129;DHT22;3606;52.930;8.644;2022-12-10T00:21:25;0.30;99.90
7129;DHT22;3606;52.930;8.644;2022-12-10T00:23:51;0.30;99.90
7129;DHT22;3606;52.930;8.644;2022-12-10T00:26:31;0.30;99.90
7129;DHT22;3606;52.930;8.644;2022-12-10T00:28:59;0.30;99.90
7129;DHT22;3606;52.930;8.644;2022-12-10T00:31:27;0.20;99.90
7129;DHT22;3606;52.930;8.644;2022-12-10T00:33:55;0.20;99.90
7129;DHT22;3606;52.930;8.644;2022-12-10T00:36:23;0.10;99.90
7129;DHT22;3606;52.930;8.644;2022-12-10T00:38:50;0.10;99.90
7129;DHT22;3606;52.930;8.644;2022-12-10T00:41:17;0.20;99.90
7129;DHT22;3606;52.930;8.644;2022-12-10T00:43:43;0.30;99.90
7129;DHT22;3606;52.930;8.644;2022-12-10T00:46:09;0.30;99.90
7129;DHT22;3606;52.930;8.644;2022-12-10T00:48:35;0.40;99.90
7129;DHT22;3606;52.930;8.644;2022-12-10T00:51:07;0.30;99.90
7129;DHT22;3606;52.930;8.644;2022-12-10T00:53:34;0.40;99.90
7129;DHT22;3606;52.930;8.644;2022-12-10T00:56:02;0.40;99.90
7129;DHT22;3606;52.930;8.644;2022-12-10T00:58:30;0.40;99.90
7129;DHT22;3606;52.930;8.644;2022-12-10T01:01:29;0.30;99.90
7129;DHT22;3606;52.930;8.644;2022-12-10T01:04:02;0.30;99.90
7129;DHT22;3606;52.930;8.644;2022-12-10T01:06:33;0.30;99.90
7129;DHT22;3606;52.930;8.644;2022-12-10T01:09:01;0.30;99.90
7129;DHT22;3606;52.930;8.644;2022-12-10T01:11:34;0.30;99.90
7129;DHT22;3606;52.930;8.644;2022-12-10T01:14:00;0.30;99.90
7129;DHT22;3606;52.930;8.644;2022-12-10T01:16:26;0.30;99.90
7129;DHT22;3606;52.930;8.644;2022-12-10T01:18:54;0.30;99.90
7129;DHT22;3606;52.930;8.644;2022-12-10T01:21:20;0.30;99.90
7129;DHT22;3606;52.930;8.644;2022-12-10T01:23:48;0.30;99.90
7129;DHT22;3606;52.930;8.644;2022-12-10T01:26:23;0.30;99.90
7129;DHT22;3606;52.930;8.644;2022-12-10T01:28:49;0.30;99.90
7129;DHT22;3606;52.930;8.644;2022-12-10T01:31:18;0.20;99.90
7129;DHT22;3606;52.930;8.644;2022-12-10T01:33:45;0.30;99.90
7129;DHT22;3606;52.930;8.644;2022-12-10T01:36:16;0.30;99.90
7129;DHT22;3606;52.930;8.644;2022-12-10T01:38:43;0.30;99.90
7129;DHT22;3606;52.930;8.644;2022-12-10T01:41:34;0.40;99.90
7129;DHT22;3606;52.930;8.644;2022-12-10T01:46:33;0.30;99.90
7129;DHT22;3606;52.930;8.644;2022-12-10T01:49:02;0.40;99.90
7129;DHT22;3606;52.930;8.644;2022-12-10T01:51:31;0.30;99.90
7129;DHT22;3606;52.930;8.644;2022-12-10T01:53:57;0.20;99.90
7129;DHT22;3606;52.930;8.644;2022-12-10T01:56:24;0.30;99.90
7129;DHT22;3606;52.930;8.644;2022-12-10T01:58:51;0.30;99.90
7129;DHT22;3606;52.930;8.644;2022-12-10T02:09:42;0.30;99.90
7129;DHT22;3606;52.930;8.644;2022-12-10T02:12:32;0.30;99.90
7129;DHT22;3606;52.930;8.644;2022-12-10T02:15:13;0.30;99.90
7129;DHT22;3606;52.930;8.644;2022-12-10T02:17:45;0.30;99.90
7129;DHT22;3606;52.930;8.644;2022-12-10T02:20:33;0.30;99.90
7129;DHT22;3606;52.930;8.644;2022-12-10T02:23:07;0.30;99.90
7129;DHT22;3606;52.930;8.644;2022-12-10T02:31:00;0.40;99.90
7129;DHT22;3606;52.930;8.644;2022-12-10T02:33:27;0.40;99.90
7129;DHT22;3606;52.930;8.644;2022-12-10T02:35:56;0.40;99.90
7129;DHT22;3606;52.930;8.644;2022-12-10T02:38:27;0.30;99.90
7129;DHT22;3606;52.930;8.644;2022-12-10T02:40:57;0.30;99.90
7129;DHT22;3606;52.930;8.644;2022-12-10T02:43:25;0.30;99.90
7129;DHT22;3606;52.930;8.644;2022-12-10T02:45:54;0.30;99.90
7129;DHT22;3606;52.930;8.644;2022-12-10T02:48:20;0.30;99.90
7129;DHT22;3606;52.930;8.644;2022-12-10T02:50:46;0.30;99.90
7129;DHT22;3606;52.930;8.644;2022-12-10T02:53:11;0.20;99.90
7129;DHT22;3606;52.930;8.644;2022-12-10T03:04:23;0.30;99.90
7129;DHT22;3606;52.930;8.644;2022-12-10T03:06:53;0.30;99.90
7129;DHT22;3606;52.930;8.644;2022-12-10T03:09:36;0.30;99.90
7129;DHT22;3606;52.930;8.644;2022-12-10T03:12:16;0.30;99.90
7129;DHT22;3606;52.930;8.644;2022-12-10T03:14:43;0.30;99.90
7129;DHT22;3606;52.930;8.644;2022-12-10T03:17:10;0.20;99.90
7129;DHT22;3606;52.930;8.644;2022-12-10T03:19:38;0.20;99.90
7129;DHT22;3606;52.930;8.644;2022-12-10T03:22:05;0.20;99.90
7129;DHT22;3606;52.930;8.644;2022-12-10T03:24:34;0.20;99.90
7129;DHT22;3606;52.930;8.644;2022-12-10T03:27:02;0.10;99.90
7129;DHT22;3606;52.930;8.644;2022-12-10T03:29:39;0.10;99.90
7129;DHT22;3606;52.930;8.644;2022-12-10T03:32:06;0.10;99.90
7129;DHT22;3606;52.930;8.644;2022-12-10T03:34:32;0.10;99.90
7129;DHT22;3606;52.930;8.644;2022-12-10T03:36:58;0.10;99.90
7129;DHT22;3606;52.930;8.644;2022-12-10T03:39:25;0.10;99.90
7129;DHT22;3606;52.930;8.644;2022-12-10T03:41:51;0.10;99.90
7129;DHT22;3606;52.930;8.644;2022-12-10T03:44:28;0.10;99.90
7129;DHT22;3606;52.930;8.644;2022-12-10T03:46:54;0.20;99.90
7129;DHT22;3606;52.930;8.644;2022-12-10T03:49:20;0.30;99.90
7129;DHT22;3606;52.930;8.644;2022-12-10T03:51:45;0.20;99.90
7129;DHT22;3606;52.930;8.644;2022-12-10T03:54:11;0.10;99.90
7129;DHT22;3606;52.930;8.644;2022-12-10T03:56:37;0.10;99.90
7129;DHT22;3606;52.930;8.644;2022-12-10T03:59:03;0.20;99.90
7129;DHT22;3606;52.930;8.644;2022-12-10T04:01:28;0.20;99.90
7129;DHT22;3606;52.930;8.644;2022-12-10T04:03:54;0.30;99.90
7129;DHT22;3606;52.930;8.644;2022-12-10T04:06:20;0.30;99.90
7129;DHT22;3606;52.930;8.644;2022-12-10T04:08:47;0.30;99.90
7129;DHT22;3606;52.930;8.644;2022-12-10T04:11:13;0.30;99.90
7129;DHT22;3606;52.930;8.644;2022-12-10T04:13:40;0.30;99.90
7129;DHT22;3606;52.930;8.644;2022-12-10T04:16:25;0.40;99.90
7129;DHT22;3606;52.930;8.644;2022-12-10T04:18:57;0.30;99.90
7129;DHT22;3606;52.930;8.644;2022-12-10T04:21:23;0.30;99.90
7129;DHT22;3606;52.930;8.644;2022-12-10T04:24:10;0.30;99.90
7129;DHT22;3606;52.930;8.644;2022-12-10T04:26:56;0.30;99.90
7129;DHT22;3606;52.930;8.644;2022-12-10T04:29:24;0.30;99.90
7129;DHT22;3606;52.930;8.644;2022-12-10T04:31:51;0.30;99.90
7129;DHT22;3606;52.930;8.644;2022-12-10T04:34:17;0.30;99.90
7129;DHT22;3606;52.930;8.644;2022-12-10T04:36:43;0.20;99.90
7129;DHT22;3606;52.930;8.644;2022-12-10T04:39:09;0.20;99.90
7129;DHT22;3606;52.930;8.644;2022-12-10T04:41:40;0.20;99.90
7129;DHT22;3606;52.930;8.644;2022-12-10T04:44:05;0.20;99.90
7129;DHT22;3606;52.930;8.644;2022-12-10T04:46:31;0.20;99.90
7129;DHT22;3606;52.930;8.644;2022-12-10T04:48:57;0.20;99.90
7129;DHT22;3606;52.930;8.644;2022-12-10T04:51:22;0.20;99.90
7129;DHT22;3606;52.930;8.644;2022-12-10T04:53:48;0.20;99.90
7129;DHT22;3606;52.930;8.644;2022-12-10T04:56:13;0.10;99.90
7129;DHT22;3606;52.930;8.644;2022-12-10T04:58:39;0.10;99.90
7129;DHT22;3606;52.930;8.644;2022-12-10T05:01:07;0.20;99.90
7129;DHT22;3606;52.930;8.644;2022-12-10T05:03:34;0.20;99.90
7129;DHT22;3606;52.930;8.644;2022-12-10T05:06:08;0.10;99.90
7129;DHT22;3606;52.930;8.644;2022-12-10T05:08:35;0.10;99.90
7129;DHT22;3606;52.930;8.644;2022-12-10T05:11:03;0.10;99.90
7129;DHT22;3606;52.930;8.644;2022-12-10T05:13:29;0.10;99.90
7129;DHT22;3606;52.930;8.644;2022-12-10T05:15:54;0.10;99.90
7129;DHT22;3606;52.930;8.644;2022-12-10T05:18:20;0.00;99.90
7129;DHT22;3606;52.930;8.644;2022-12-10T05:20:46;0.00;99.90
7129;DHT22;3606;52.930;8.644;2022-12-10T05:23:11;-0.10;99.90
7129;DHT22;3606;52.930;8.644;2022-12-10T05:25:59;-0.10;99.90
7129;DHT22;3606;52.930;8.644;2022-12-10T05:28:25;0.00;99.90
7129;DHT22;3606;52.930;8.644;2022-12-10T05:30:51;0.00;99.90
7129;DHT22;3606;52.930;8.644;2022-12-10T05:33:17;-0.10;99.90
7129;DHT22;3606;52.930;8.644;2022-12-10T05:35:42;-0.10;99.90
7129;DHT22;3606;52.930;8.644;2022-12-10T05:38:08;-0.10;99.90
7129;DHT22;3606;52.930;8.644;2022-12-10T05:40:36;-0.10;99.90
7129;DHT22;3606;52.930;8.644;2022-12-10T05:43:02;-0.10;99.90
7129;DHT22;3606;52.930;8.644;2022-12-10T05:45:28;0.00;99.90
7129;DHT22;3606;52.930;8.644;2022-12-10T05:47:53;0.00;99.90
7129;DHT22;3606;52.930;8.644;2022-12-10T05:50:19;-0.10;99.90
7129;DHT22;3606;52.930;8.644;2022-12-10T05:52:45;-0.10;99.90
7129;DHT22;3606;52.930;8.644;2022-12-10T05:55:10;-0.10;99.90
7129;DHT22;3606;52.930;8.644;2022-12-10T05:57:36;-0.10;99.90
7129;DHT22;3606;52.930;8.644;2022-12-10T06:00:04;-0.10;99.90
7129;DHT22;3606;52.930;8.644;2022-12-10T06:02:32;0.00;99.90
7129;DHT22;3606;52.930;8.644;2022-12-10T06:04:58;0.00;99.90
7129;DHT22;3606;52.930;8.644;2022-12-10T06:07:24;0.00;99.90
7129;DHT22;3606;52.930;8.644;2022-12-10T06:09:49;0.00;99.90
7129;DHT22;3606;52.930;8.644;2022-12-10T06:12:15;0.00;99.90
7129;DHT22;3606;52.930;8.644;2022-12-10T06:14:40;0.00;99.90
7129;DHT22;3606;52.930;8.644;2022-12-10T06:17:06;0.00;99.90
7129;DHT22;3606;52.930;8.644;2022-12-10T06:19:31;0.00;99.90
7129;DHT22;3606;52.930;8.644;2022-12-10T06:21:57;0.00;99.90
7129;DHT22;3606;52.930;8.644;2022-12-10T06:24:24;0.00;99.90
7129;DHT22;3606;52.930;8.644;2022-12-10T06:26:49;0.00;99.90
7129;DHT22;3606;52.930;8.644;2022-12-10T06:29:15;-0.10;99.90
7129;DHT22;3606;52.930;8.644;2022-12-10T06:31:41;-0.10;99.90
7129;DHT22;3606;52.930;8.644;2022-12-10T06:34:07;-0.10;99.90
7129;DHT22;3606;52.930;8.644;2022-12-10T06:36:32;-0.10;99.90
7129;DHT22;3606;52.930;8.644;2022-12-10T06:38:58;0.00;99.90
7129;DHT22;3606;52.930;8.644;2022-12-10T06:41:24;-0.10;99.90
7129;DHT22;3606;52.930;8.644;2022-12-10T06:43:50;-0.10;99.90
7129;DHT22;3606;52.930;8.644;2022-12-10T06:46:18;-0.10;99.90
7129;DHT22;3606;52.930;8.644;2022-12-10T06:48:44;-0.20;99.90
7129;DHT22;3606;52.930;8.644;2022-12-10T06:51:11;-0.20;99.90
7129;DHT22;3606;52.930;8.644;2022-12-10T06:53:38;-0.10;99.90
7129;DHT22;3606;52.930;8.644;2022-12-10T06:56:06;-0.10;99.90
7129;DHT22;3606;52.930;8.644;2022-12-10T06:58:33;-0.10;99.90
7129;DHT22;3606;52.930;8.644;2022-12-10T07:01:07;-0.10;99.90
7129;DHT22;3606;52.930;8.644;2022-12-10T07:03:34;-0.10;99.90
7129;DHT22;3606;52.930;8.644;2022-12-10T07:06:01;-0.10;99.90
7129;DHT22;3606;52.930;8.644;2022-12-10T07:08:27;-0.10;99.90
7129;DHT22;3606;52.930;8.644;2022-12-10T07:10:53;-0.10;99.90
7129;DHT22;3606;52.930;8.644;2022-12-10T07:13:18;-0.10;99.90
7129;DHT22;3606;52.930;8.644;2022-12-10T07:15:44;-0.10;99.90
7129;DHT22;3606;52.930;8.644;2022-12-10T07:18:10;-0.10;99.90
7129;DHT22;3606;52.930;8.644;2022-12-10T07:20:36;-0.10;99.90
7129;DHT22;3606;52.930;8.644;2022-12-10T07:23:01;0.00;99.90
7129;DHT22;3606;52.930;8.644;2022-12-10T07:25:27;-0.10;99.90
7129;DHT22;3606;52.930;8.644;2022-12-10T07:27:52;-0.10;99.90
7129;DHT22;3606;52.930;8.644;2022-12-10T07:30:18;-0.10;99.90
7129;DHT22;3606;52.930;8.644;2022-12-10T07:32:44;-0.10;99.90
7129;DHT22;3606;52.930;8.644;2022-12-10T07:35:09;-0.10;99.90
7129;DHT22;3606;52.930;8.644;2022-12-10T07:37:35;-0.10;99.90
7129;DHT22;3606;52.930;8.644;2022-12-10T07:40:00;-0.10;99.90
7129;DHT22;3606;52.930;8.644;2022-12-10T07:42:26;-0.10;99.90
7129;DHT22;3606;52.930;8.644;2022-12-10T07:44:51;-0.10;99.90
7129;DHT22;3606;52.930;8.644;2022-12-10T07:47:17;-0.10;99.90
7129;DHT22;3606;52.930;8.644;2022-12-10T07:49:43;-0.10;99.90
7129;DHT22;3606;52.930;8.644;2022-12-10T07:52:08;0.00;99.90
7129;DHT22;3606;52.930;8.644;2022-12-10T07:54:34;0.00;99.90
7129;DHT22;3606;52.930;8.644;2022-12-10T07:57:00;0.00;99.90
7129;DHT22;3606;52.930;8.644;2022-12-10T07:59:25;-0.10;99.90
7129;DHT22;3606;52.930;8.644;2022-12-10T08:01:52;0.00;99.90
7129;DHT22;3606;52.930;8.644;2022-12-10T08:04:17;0.00;99.90
7129;DHT22;3606;52.930;8.644;2022-12-10T08:06:43;0.10;99.90
7129;DHT22;3606;52.930;8.644;2022-12-10T08:09:09;0.10;99.90
7129;DHT22;3606;52.930;8.644;2022-12-10T08:11:35;0.20;99.90
7129;DHT22;3606;52.930;8.644;2022-12-10T08:14:01;0.20;99.90
7129;DHT22;3606;52.930;8.644;2022-12-10T08:16:28;0.20;99.90
7129;DHT22;3606;52.930;8.644;2022-12-10T08:18:59;0.20;99.90
7129;DHT22;3606;52.930;8.644;2022-12-10T08:21:28;0.30;99.90
7129;DHT22;3606;52.930;8.644;2022-12-10T08:23:54;0.30;99.90
7129;DHT22;3606;52.930;8.644;2022-12-10T08:26:23;0.30;99.90
7129;DHT22;3606;52.930;8.644;2022-12-10T08:28:50;0.30;99.90
7129;DHT22;3606;52.930;8.644;2022-12-10T08:31:18;0.30;99.90
7129;DHT22;3606;52.930;8.644;2022-12-10T08:33:44;0.30;99.90
7129;DHT22;3606;52.930;8.644;2022-12-10T08:36:12;0.40;99.90
7129;DHT22;3606;52.930;8.644;2022-12-10T08:38:38;0.40;99.90
7129;DHT22;3606;52.930;8.644;2022-12-10T08:41:18;0.50;99.90
7129;DHT22;3606;52.930;8.644;2022-12-10T08:43:44;0.60;99.90
7129;DHT22;3606;52.930;8.644;2022-12-10T08:46:11;0.60;99.90
7129;DHT22;3606;52.930;8.644;2022-12-10T08:48:37;0.60;99.90
7129;DHT22;3606;52.930;8.644;2022-12-10T08:51:04;0.70;99.90
7129;DHT22;3606;52.930;8.644;2022-12-10T08:53:30;0.70;99.90
7129;DHT22;3606;52.930;8.644;2022-12-10T08:55:56;0.80;99.90
7129;DHT22;3606;52.930;8.644;2022-12-10T08:58:22;0.90;99.90
7129;DHT22;3606;52.930;8.644;2022-12-10T09:00:48;0.90;99.90
7129;DHT22;3606;52.930;8.644;2022-12-10T09:03:14;1.00;99.90
7129;DHT22;3606;52.930;8.644;2022-12-10T09:05:40;1.00;99.90
7129;DHT22;3606;52.930;8.644;2022-12-10T09:08:06;1.10;99.90
7129;DHT22;3606;52.930;8.644;2022-12-10T09:10:31;1.10;99.90
7129;DHT22;3606;52.930;8.644;2022-12-10T09:12:57;1.00;99.90
7129;DHT22;3606;52.930;8.644;2022-12-10T09:15:22;1.10;99.90
7129;DHT22;3606;52.930;8.644;2022-12-10T09:17:48;1.10;99.90
7129;DHT22;3606;52.930;8.644;2022-12-10T09:20:13;1.10;99.90
7129;DHT22;3606;52.930;8.644;2022-12-10T09:22:39;1.10;99.90
7129;DHT22;3606;52.930;8.644;2022-12-10T09:25:06;1.20;99.90
7129;DHT22;3606;52.930;8.644;2022-12-10T09:27:32;1.20;99.90
7129;DHT22;3606;52.930;8.644;2022-12-10T09:29:58;1.30;99.90
7129;DHT22;3606;52.930;8.644;2022-12-10T09:32:24;1.40;99.90
7129;DHT22;3606;52.930;8.644;2022-12-10T09:34:53;1.40;99.90
7129;DHT22;3606;52.930;8.644;2022-12-10T09:37:19;1.30;99.90
7129;DHT22;3606;52.930;8.644;2022-12-10T09:39:45;1.40;99.90
7129;DHT22;3606;52.930;8.644;2022-12-10T09:50:26;1.50;99.90
7129;DHT22;3606;52.930;8.644;2022-12-10T09:52:54;1.60;99.90
7129;DHT22;3606;52.930;8.644;2022-12-10T09:55:33;1.60;99.90
7129;DHT22;3606;52.930;8.644;2022-12-10T09:58:00;1.60;99.90
7129;DHT22;3606;52.930;8.644;2022-12-10T10:02:59;1.60;92.00
7129;DHT22;3606;52.930;8.644;2022-12-10T10:05:31;1.70;99.90
7129;DHT22;3606;52.930;8.644;2022-12-10T10:08:03;1.70;99.90
7129;DHT22;3606;52.930;8.644;2022-12-10T10:10:34;1.70;98.90
7129;DHT22;3606;52.930;8.644;2022-12-10T10:13:11;1.80;95.80
7129;DHT22;3606;52.930;8.644;2022-12-10T10:15:42;1.80;60.20
7129;DHT22;3606;52.930;8.644;2022-12-10T10:18:51;1.80;2.40
7129;DHT22;3606;52.930;8.644;2022-12-10T10:21:33;1.70;10.70
7129;DHT22;3606;52.930;8.644;2022-12-10T10:24:00;1.80;39.30
7129;DHT22;3606;52.930;8.644;2022-12-10T10:26:27;1.80;11.60
7129;DHT22;3606;52.930;8.644;2022-12-10T10:29:00;1.80;3.20
7129;DHT22;3606;52.930;8.644;2022-12-10T10:31:28;2.00;19.60
7129;DHT22;3606;52.930;8.644;2022-12-10T10:34:18;2.00;9.70
7129;DHT22;3606;52.930;8.644;2022-12-10T10:36:44;2.10;1.00
7129;DHT22;3606;52.930;8.644;2022-12-10T10:39:31;2.00;1.00
7129;DHT22;3606;52.930;8.644;2022-12-10T10:41:59;2.00;1.00
7129;DHT22;3606;52.930;8.644;2022-12-10T10:44:28;2.00;1.00
7129;DHT22;3606;52.930;8.644;2022-12-10T10:46:58;2.10;1.00
7129;DHT22;3606;52.930;8.644;2022-12-10T10:49:27;2.20;1.00
7129;DHT22;3606;52.930;8.644;2022-12-10T10:51:54;2.40;1.00
7129;DHT22;3606;52.930;8.644;2022-12-10T10:54:33;2.40;1.00
7129;DHT22;3606;52.930;8.644;2022-12-10T10:57:10;2.50;1.00
7129;DHT22;3606;52.930;8.644;2022-12-10T10:59:36;2.60;1.00
7129;DHT22;3606;52.930;8.644;2022-12-10T11:04:48;2.50;1.00
7129;DHT22;3606;52.930;8.644;2022-12-10T11:07:32;2.40;1.00
7129;DHT22;3606;52.930;8.644;2022-12-10T11:09:58;2.40;1.00
7129;DHT22;3606;52.930;8.644;2022-12-10T11:12:37;2.50;1.00
7129;DHT22;3606;52.930;8.644;2022-12-10T11:15:29;2.50;1.00
7129;DHT22;3606;52.930;8.644;2022-12-10T11:17:55;2.60;1.00
7129;DHT22;3606;52.930;8.644;2022-12-10T11:20:34;2.70;1.00
7129;DHT22;3606;52.930;8.644;2022-12-10T11:23:03;2.70;1.00
7129;DHT22;3606;52.930;8.644;2022-12-10T11:31:25;3.30;99.90
7129;DHT22;3606;52.930;8.644;2022-12-10T11:33:56;3.40;99.90
7129;DHT22;3606;52.930;8.644;2022-12-10T11:44:43;3.30;1.00
7129;DHT22;3606;52.930;8.644;2022-12-10T11:47:42;3.30;1.00
7129;DHT22;3606;52.930;8.644;2022-12-10T11:50:33;3.10;1.00
7129;DHT22;3606;52.930;8.644;2022-12-10T11:56:43;3.00;1.00
7129;DHT22;3606;52.930;8.644;2022-12-10T12:12:33;2.50;1.00
7129;DHT22;3606;52.930;8.644;2022-12-10T12:15:17;2.50;1.00
7129;DHT22;3606;52.930;8.644;2022-12-10T12:17:50;2.50;99.90
7129;DHT22;3606;52.930;8.644;2022-12-10T12:20:22;2.50;99.90
7129;DHT22;3606;52.930;8.644;2022-12-10T12:22:53;2.60;1.00
7129;DHT22;3606;52.930;8.644;2022-12-10T12:25:27;2.70;1.00
7129;DHT22;3606;52.930;8.644;2022-12-10T12:28:05;2.70;99.90
7129;DHT22;3606;52.930;8.644;2022-12-10T12:30:35;2.70;20.80
7129;DHT22;3606;52.930;8.644;2022-12-10T12:33:09;2.60;1.00
7129;DHT22;3606;52.930;8.644;2022-12-10T12:35:43;2.50;1.00
7129;DHT22;3606;52.930;8.644;2022-12-10T12:38:30;2.40;1.00
7129;DHT22;3606;52.930;8.644;2022-12-10T12:43:50;2.40;99.90
7129;DHT22;3606;52.930;8.644;2022-12-10T12:46:49;2.40;99.90
7129;DHT22;3606;52.930;8.644;2022-12-10T12:49:30;2.30;1.00
7129;DHT22;3606;52.930;8.644;2022-12-10T12:54:41;2.30;1.00
7129;DHT22;3606;52.930;8.644;2022-12-10T12:57:26;2.10;1.00
7129;DHT22;3606;52.930;8.644;2022-12-10T12:59:59;2.10;1.00
7129;DHT22;3606;52.930;8.644;2022-12-10T13:04:56;1.90;99.90
7129;DHT22;3606;52.930;8.644;2022-12-10T13:13:34;2.00;99.90
7129;DHT22;3606;52.930;8.644;2022-12-10T13:15:41;2.00;99.90
7129;DHT22;3606;52.930;8.644;2022-12-10T13:20:46;1.90;1.00
7129;DHT22;3606;52.930;8.644;2022-12-10T13:33:48;1.80;1.00
7129;DHT22;3606;52.930;8.644;2022-12-10T13:47:43;1.60;1.00
7129;DHT22;3606;52.930;8.644;2022-12-10T13:50:32;1.70;99.90
7129;DHT22;3606;52.930;8.644;2022-12-10T14:06:37;1.30;1.00
7129;DHT22;3606;52.930;8.644;2022-12-10T14:09:26;1.30;1.00
7129;DHT22;3606;52.930;8.644;2022-12-10T14:12:03;1.30;94.10
7129;DHT22;3606;52.930;8.644;2022-12-10T14:14:46;1.30;1.00
7129;DHT22;3606;52.930;8.644;2022-12-10T14:17:18;1.40;1.00
7129;DHT22;3606;52.930;8.644;2022-12-10T14:19:50;1.30;1.00
7129;DHT22;3606;52.930;8.644;2022-12-10T14:22:33;1.20;1.00
7129;DHT22;3606;52.930;8.644;2022-12-10T14:25:01;1.20;57.60
7129;DHT22;3606;52.930;8.644;2022-12-10T14:27:28;1.20;4.50
7129;DHT22;3606;52.930;8.644;2022-12-10T14:30:00;1.20;1.00
7129;DHT22;3606;52.930;8.644;2022-12-10T14:32:37;1.10;1.00
7129;DHT22;3606;52.930;8.644;2022-12-10T14:35:06;1.10;1.00
7129;DHT22;3606;52.930;8.644;2022-12-10T14:37:35;1.10;23.00
7129;DHT22;3606;52.930;8.644;2022-12-10T14:40:05;1.20;1.00
7129;DHT22;3606;52.930;8.644;2022-12-10T14:42:31;1.20;1.00
7129;DHT22;3606;52.930;8.644;2022-12-10T14:45:03;1.10;1.00
7129;DHT22;3606;52.930;8.644;2022-12-10T14:47:37;1.10;99.90
7129;DHT22;3606;52.930;8.644;2022-12-10T14:50:06;1.20;99.90
7129;DHT22;3606;52.930;8.644;2022-12-10T14:52:41;1.10;99.90
7129;DHT22;3606;52.930;8.644;2022-12-10T14:55:15;1.10;99.90
7129;DHT22;3606;52.930;8.644;2022-12-10T14:57:44;1.00;99.90
7129;DHT22;3606;52.930;8.644;2022-12-10T15:00:19;1.00;99.90
7129;DHT22;3606;52.930;8.644;2022-12-10T15:02:52;1.00;99.90
7129;DHT22;3606;52.930;8.644;2022-12-10T15:05:24;1.00;1.00
7129;DHT22;3606;52.930;8.644;2022-12-10T15:08:04;0.90;1.00
7129;DHT22;3606;52.930;8.644;2022-12-10T15:10:44;0.90;1.00
7129;DHT22;3606;52.930;8.644;2022-12-10T15:13:33;0.80;1.00
7129;DHT22;3606;52.930;8.644;2022-12-10T15:16:00;0.80;1.00
7129;DHT22;3606;52.930;8.644;2022-12-10T15:18:37;0.70;1.00
7129;DHT22;3606;52.930;8.644;2022-12-10T15:23:34;0.60;1.00
7129;DHT22;3606;52.930;8.644;2022-12-10T15:26:05;0.70;1.00
7129;DHT22;3606;52.930;8.644;2022-12-10T15:28:37;0.70;1.00
7129;DHT22;3606;52.930;8.644;2022-12-10T15:34:01;0.60;1.00
7129;DHT22;3606;52.930;8.644;2022-12-10T15:36:39;0.60;1.00
7129;DHT22;3606;52.930;8.644;2022-12-10T15:39:20;0.60;1.00
7129;DHT22;3606;52.930;8.644;2022-12-10T15:41:51;0.60;1.00
7129;DHT22;3606;52.930;8.644;2022-12-10T15:44:36;0.70;1.00
7129;DHT22;3606;52.930;8.644;2022-12-10T15:47:22;0.70;1.00
7129;DHT22;3606;52.930;8.644;2022-12-10T15:49:51;0.70;1.00
7129;DHT22;3606;52.930;8.644;2022-12-10T15:54:47;0.70;1.00
7129;DHT22;3606;52.930;8.644;2022-12-10T15:59:44;0.70;1.00
7129;DHT22;3606;52.930;8.644;2022-12-10T16:02:37;0.70;1.00
7129;DHT22;3606;52.930;8.644;2022-12-10T16:07:35;0.60;1.00
7129;DHT22;3606;52.930;8.644;2022-12-10T16:10:01;0.60;1.00
7129;DHT22;3606;52.930;8.644;2022-12-10T16:12:27;0.60;1.00
7129;DHT22;3606;52.930;8.644;2022-12-10T16:14:54;0.50;1.00
7129;DHT22;3606;52.930;8.644;2022-12-10T16:17:29;0.40;1.00
7129;DHT22;3606;52.930;8.644;2022-12-10T16:20:21;0.40;1.00
7129;DHT22;3606;52.930;8.644;2022-12-10T16:22:45;0.30;1.00
7129;DHT22;3606;52.930;8.644;2022-12-10T16:25:11;0.30;1.00
7129;DHT22;3606;52.930;8.644;2022-12-10T16:27:37;0.30;6.80
7129;DHT22;3606;52.930;8.644;2022-12-10T16:32:52;0.20;31.30
7129;DHT22;3606;52.930;8.644;2022-12-10T16:35:18;0.20;52.10
7129;DHT22;3606;52.930;8.644;2022-12-10T16:37:44;0.20;66.80
7129;DHT22;3606;52.930;8.644;2022-12-10T16:40:14;0.20;69.60
7129;DHT22;3606;52.930;8.644;2022-12-10T16:42:40;0.20;77.20
7129;DHT22;3606;52.930;8.644;2022-12-10T16:45:16;0.20;92.60
7129;DHT22;3606;52.930;8.644;2022-12-10T16:47:43;0.20;95.00
7129;DHT22;3606;52.930;8.644;2022-12-10T16:50:09;0.30;99.90
7129;DHT22;3606;52.930;8.644;2022-12-10T16:52:35;0.40;99.90
7129;DHT22;3606;52.930;8.644;2022-12-10T16:55:01;0.40;92.50
7129;DHT22;3606;52.930;8.644;2022-12-10T16:57:27;0.40;99.00
7129;DHT22;3606;52.930;8.644;2022-12-10T16:59:53;0.40;90.40
7129;DHT22;3606;52.930;8.644;2022-12-10T17:02:18;0.50;87.90
7129;DHT22;3606;52.930;8.644;2022-12-10T17:04:46;0.50;67.10
7129;DHT22;3606;52.930;8.644;2022-12-10T17:07:12;0.50;55.30
7129;DHT22;3606;52.930;8.644;2022-12-10T17:09:38;0.50;61.10
7129;DHT22;3606;52.930;8.644;2022-12-10T17:12:06;0.50;70.90
7129;DHT22;3606;52.930;8.644;2022-12-10T17:14:34;0.50;68.10
7129;DHT22;3606;52.930;8.644;2022-12-10T17:17:00;0.50;60.30
7129;DHT22;3606;52.930;8.644;2022-12-10T17:19:30;0.50;54.20
7129;DHT22;3606;52.930;8.644;2022-12-10T17:21:56;0.40;61.60
7129;DHT22;3606;52.930;8.644;2022-12-10T17:24:22;0.30;75.40
7129;DHT22;3606;52.930;8.644;2022-12-10T17:26:47;0.30;86.70
7129;DHT22;3606;52.930;8.644;2022-12-10T17:29:28;0.20;99.30
7129;DHT22;3606;52.930;8.644;2022-12-10T17:31:54;0.20;99.90
7129;DHT22;3606;52.930;8.644;2022-12-10T17:34:19;0.20;99.90
7129;DHT22;3606;52.930;8.644;2022-12-10T17:36:49;0.20;99.90
7129;DHT22;3606;52.930;8.644;2022-12-10T17:39:16;0.20;99.90
7129;DHT22;3606;52.930;8.644;2022-12-10T17:41:42;0.20;99.90
7129;DHT22;3606;52.930;8.644;2022-12-10T17:44:07;0.20;99.90
7129;DHT22;3606;52.930;8.644;2022-12-10T17:46:33;0.20;99.90
7129;DHT22;3606;52.930;8.644;2022-12-10T17:48:59;0.10;99.90
7129;DHT22;3606;52.930;8.644;2022-12-10T17:51:26;0.10;99.90
7129;DHT22;3606;52.930;8.644;2022-12-10T17:53:52;0.20;99.90
7129;DHT22;3606;52.930;8.644;2022-12-10T17:56:21;0.20;99.90
7129;DHT22;3606;52.930;8.644;2022-12-10T17:58:48;0.20;99.90
7129;DHT22;3606;52.930;8.644;2022-12-10T18:01:15;0.10;99.90
7129;DHT22;3606;52.930;8.644;2022-12-10T18:03:42;0.20;99.90
7129;DHT22;3606;52.930;8.644;2022-12-10T18:06:34;0.30;99.90
7129;DHT22;3606;52.930;8.644;2022-12-10T18:09:00;0.30;99.90
7129;DHT22;3606;52.930;8.644;2022-12-10T18:11:29;0.30;99.90
7129;DHT22;3606;52.930;8.644;2022-12-10T18:13:55;0.30;99.90
7129;DHT22;3606;52.930;8.644;2022-12-10T18:16:24;0.30;99.90
7129;DHT22;3606;52.930;8.644;2022-12-10T18:18:58;0.30;99.90
7129;DHT22;3606;52.930;8.644;2022-12-10T18:21:24;0.30;99.90
7129;DHT22;3606;52.930;8.644;2022-12-10T18:23:51;0.40;99.90
7129;DHT22;3606;52.930;8.644;2022-12-10T18:26:20;0.30;99.90
7129;DHT22;3606;52.930;8.644;2022-12-10T18:28:55;0.40;99.90
7129;DHT22;3606;52.930;8.644;2022-12-10T18:31:24;0.30;99.90
7129;DHT22;3606;52.930;8.644;2022-12-10T18:33:53;0.30;99.90
7129;DHT22;3606;52.930;8.644;2022-12-10T18:36:31;0.30;99.90
7129;DHT22;3606;52.930;8.644;2022-12-10T18:38:58;0.30;99.90
7129;DHT22;3606;52.930;8.644;2022-12-10T18:41:24;0.30;99.90
7129;DHT22;3606;52.930;8.644;2022-12-10T18:43:50;0.40;99.90
7129;DHT22;3606;52.930;8.644;2022-12-10T18:46:24;0.40;99.90
7129;DHT22;3606;52.930;8.644;2022-12-10T18:48:51;0.40;99.90
7129;DHT22;3606;52.930;8.644;2022-12-10T18:51:17;0.40;99.90
7129;DHT22;3606;52.930;8.644;2022-12-10T18:53:44;0.40;99.90